sensor_id;sensor_type;location;lat;lon;timestamp;P1;durP1;ratioP1;P2;durP2;ratioP2
50517;SDS011;37075;44.084;2.962;2024-02-16T00:02:31;2.03;;;0.63;;
50517;SDS011;37075;44.084;2.962;2024-02-16T00:05:18;0.40;;;0.20;;
50517;SDS011;37075;44.084;2.962;2024-02-16T00:08:04;0.22;;;0.10;;
50517;SDS011;37075;44.084;2.962;2024-02-16T00:10:50;0.10;;;0.08;;
50517;SDS011;37075;44.084;2.962;2024-02-16T00:13:36;1.30;;;0.57;;
50517;SDS011;37075;44.084;2.962;2024-02-16T00:16:23;2.67;;;0.50;;
50517;SDS011;37075;44.084;2.962;2024-02-16T00:19:11;0.85;;;0.20;;
50517;SDS011;37075;44.084;2.962;2024-02-16T00:21:57;0.90;;;0.20;;
50517;SDS011;37075;44.084;2.962;2024-02-16T00:24:43;0.10;;;0.10;;
50517;SDS011;37075;44.084;2.962;2024-02-16T00:27:29;0.57;;;0.20;;
50517;SDS011;37075;44.084;2.962;2024-02-16T00:30:15;4.40;;;0.50;;
50517;SDS011;37075;44.084;2.962;2024-02-16T00:33:03;0.08;;;0.08;;
50517;SDS011;37075;44.084;2.962;2024-02-16T00:35:50;1.05;;;0.50;;
50517;SDS011;37075;44.084;2.962;2024-02-16T00:41:23;0.55;;;0.43;;
50517;SDS011;37075;44.084;2.962;2024-02-16T00:44:09;0.70;;;0.30;;
50517;SDS011;37075;44.084;2.962;2024-02-16T00:46:56;3.13;;;1.05;;
50517;SDS011;37075;44.084;2.962;2024-02-16T00:49:43;3.93;;;0.80;;
50517;SDS011;37075;44.084;2.962;2024-02-16T00:52:30;0.98;;;0.45;;
50517;SDS011;37075;44.084;2.962;2024-02-16T00:55:16;0.52;;;0.30;;
50517;SDS011;37075;44.084;2.962;2024-02-16T00:58:02;0.75;;;0.22;;
50517;SDS011;37075;44.084;2.962;2024-02-16T01:00:48;0.20;;;0.20;;
50517;SDS011;37075;44.084;2.962;2024-02-16T01:03:34;1.55;;;0.50;;
50517;SDS011;37075;44.084;2.962;2024-02-16T01:06:22;1.73;;;0.38;;
50517;SDS011;37075;44.084;2.962;2024-02-16T01:09:09;2.78;;;0.47;;
50517;SDS011;37075;44.084;2.962;2024-02-16T01:11:57;1.17;;;0.28;;
50517;SDS011;37075;44.084;2.962;2024-02-16T01:14:43;1.27;;;0.35;;
50517;SDS011;37075;44.084;2.962;2024-02-16T01:17:29;3.58;;;0.30;;
50517;SDS011;37075;44.084;2.962;2024-02-16T01:20:17;4.75;;;0.88;;
50517;SDS011;37075;44.084;2.962;2024-02-16T01:23:04;0.30;;;0.20;;
50517;SDS011;37075;44.084;2.962;2024-02-16T01:25:52;3.75;;;0.40;;
50517;SDS011;37075;44.084;2.962;2024-02-16T01:28:37;0.00;;;0.00;;
50517;SDS011;37075;44.084;2.962;2024-02-16T01:31:24;1.95;;;0.77;;
50517;SDS011;37075;44.084;2.962;2024-02-16T01:34:10;1.58;;;0.85;;
50517;SDS011;37075;44.084;2.962;2024-02-16T01:36:56;2.50;;;0.82;;
50517;SDS011;37075;44.084;2.962;2024-02-16T01:39:43;0.80;;;0.50;;
50517;SDS011;37075;44.084;2.962;2024-02-16T01:42:31;1.65;;;0.82;;
50517;SDS011;37075;44.084;2.962;2024-02-16T01:45:17;5.33;;;0.30;;
50517;SDS011;37075;44.084;2.962;2024-02-16T01:48:03;4.03;;;1.55;;
50517;SDS011;37075;44.084;2.962;2024-02-16T01:50:50;0.30;;;0.20;;
50517;SDS011;37075;44.084;2.962;2024-02-16T01:53:36;0.47;;;0.45;;
50517;SDS011;37075;44.084;2.962;2024-02-16T01:56:23;4.65;;;0.30;;
50517;SDS011;37075;44.084;2.962;2024-02-16T01:59:12;1.10;;;0.70;;
50517;SDS011;37075;44.084;2.962;2024-02-16T02:01:58;2.50;;;0.75;;
50517;SDS011;37075;44.084;2.962;2024-02-16T02:04:45;2.88;;;0.80;;
50517;SDS011;37075;44.084;2.962;2024-02-16T02:07:31;7.22;;;1.17;;
50517;SDS011;37075;44.084;2.962;2024-02-16T02:10:17;1.55;;;0.40;;
50517;SDS011;37075;44.084;2.962;2024-02-16T02:13:03;1.40;;;0.70;;
50517;SDS011;37075;44.084;2.962;2024-02-16T02:15:51;12.77;;;1.77;;
50517;SDS011;37075;44.084;2.962;2024-02-16T02:18:38;0.65;;;0.40;;
50517;SDS011;37075;44.084;2.962;2024-02-16T02:21:24;4.22;;;0.47;;
50517;SDS011;37075;44.084;2.962;2024-02-16T02:24:11;0.50;;;0.50;;
50517;SDS011;37075;44.084;2.962;2024-02-16T02:26:57;0.57;;;0.32;;
50517;SDS011;37075;44.084;2.962;2024-02-16T02:29:43;0.82;;;0.40;;
50517;SDS011;37075;44.084;2.962;2024-02-16T02:32:29;1.10;;;0.40;;
50517;SDS011;37075;44.084;2.962;2024-02-16T02:35:15;1.77;;;0.30;;
50517;SDS011;37075;44.084;2.962;2024-02-16T02:38:02;1.88;;;0.98;;
50517;SDS011;37075;44.084;2.962;2024-02-16T02:40:50;6.95;;;0.85;;
50517;SDS011;37075;44.084;2.962;2024-02-16T02:43:36;1.13;;;0.85;;
50517;SDS011;37075;44.084;2.962;2024-02-16T02:46:22;2.40;;;0.80;;
50517;SDS011;37075;44.084;2.962;2024-02-16T02:49:09;0.88;;;0.50;;
50517;SDS011;37075;44.084;2.962;2024-02-16T02:51:55;4.88;;;1.25;;
50517;SDS011;37075;44.084;2.962;2024-02-16T02:54:42;0.82;;;0.63;;
50517;SDS011;37075;44.084;2.962;2024-02-16T02:57:29;3.22;;;1.17;;
50517;SDS011;37075;44.084;2.962;2024-02-16T03:00:15;1.97;;;0.77;;
50517;SDS011;37075;44.084;2.962;2024-02-16T03:03:01;2.25;;;0.68;;
50517;SDS011;37075;44.084;2.962;2024-02-16T03:05:48;1.85;;;0.75;;
50517;SDS011;37075;44.084;2.962;2024-02-16T03:08:35;2.00;;;1.30;;
50517;SDS011;37075;44.084;2.962;2024-02-16T03:11:20;1.45;;;0.77;;
50517;SDS011;37075;44.084;2.962;2024-02-16T03:14:08;10.27;;;1.48;;
50517;SDS011;37075;44.084;2.962;2024-02-16T03:16:54;0.98;;;0.75;;
50517;SDS011;37075;44.084;2.962;2024-02-16T03:19:40;2.67;;;1.50;;
50517;SDS011;37075;44.084;2.962;2024-02-16T03:22:26;1.02;;;0.70;;
50517;SDS011;37075;44.084;2.962;2024-02-16T03:25:12;0.88;;;0.80;;
50517;SDS011;37075;44.084;2.962;2024-02-16T03:27:58;0.82;;;0.68;;
50517;SDS011;37075;44.084;2.962;2024-02-16T03:30:46;5.82;;;1.80;;
50517;SDS011;37075;44.084;2.962;2024-02-16T03:33:32;0.93;;;0.68;;
50517;SDS011;37075;44.084;2.962;2024-02-16T03:36:19;5.25;;;1.35;;
50517;SDS011;37075;44.084;2.962;2024-02-16T03:39:05;1.35;;;0.73;;
50517;SDS011;37075;44.084;2.962;2024-02-16T03:41:53;3.58;;;1.33;;
50517;SDS011;37075;44.084;2.962;2024-02-16T03:44:39;4.50;;;1.25;;
50517;SDS011;37075;44.084;2.962;2024-02-16T03:47:26;1.58;;;0.85;;
50517;SDS011;37075;44.084;2.962;2024-02-16T03:50:12;1.65;;;1.33;;
50517;SDS011;37075;44.084;2.962;2024-02-16T03:52:59;4.13;;;0.68;;
50517;SDS011;37075;44.084;2.962;2024-02-16T03:55:45;1.45;;;0.77;;
50517;SDS011;37075;44.084;2.962;2024-02-16T03:58:30;2.55;;;1.10;;
50517;SDS011;37075;44.084;2.962;2024-02-16T04:01:17;1.40;;;1.00;;
50517;SDS011;37075;44.084;2.962;2024-02-16T04:04:04;1.50;;;0.80;;
50517;SDS011;37075;44.084;2.962;2024-02-16T04:06:50;3.15;;;1.50;;
50517;SDS011;37075;44.084;2.962;2024-02-16T04:09:36;3.03;;;0.70;;
50517;SDS011;37075;44.084;2.962;2024-02-16T04:12:22;4.47;;;1.42;;
50517;SDS011;37075;44.084;2.962;2024-02-16T04:15:08;3.75;;;1.00;;
50517;SDS011;37075;44.084;2.962;2024-02-16T04:17:54;3.22;;;0.98;;
50517;SDS011;37075;44.084;2.962;2024-02-16T04:20:42;1.67;;;0.90;;
50517;SDS011;37075;44.084;2.962;2024-02-16T04:23:28;0.90;;;0.70;;
50517;SDS011;37075;44.084;2.962;2024-02-16T04:26:13;2.40;;;1.63;;
50517;SDS011;37075;44.084;2.962;2024-02-16T04:28:59;1.25;;;1.15;;
50517;SDS011;37075;44.084;2.962;2024-02-16T04:31:45;6.22;;;0.98;;
50517;SDS011;37075;44.084;2.962;2024-02-16T04:34:31;2.00;;;0.60;;
50517;SDS011;37075;44.084;2.962;2024-02-16T04:37:18;3.67;;;1.48;;
50517;SDS011;37075;44.084;2.962;2024-02-16T04:40:05;5.72;;;0.60;;
50517;SDS011;37075;44.084;2.962;2024-02-16T04:42:51;0.63;;;0.38;;
50517;SDS011;37075;44.084;2.962;2024-02-16T04:45:38;2.83;;;0.70;;
50517;SDS011;37075;44.084;2.962;2024-02-16T04:48:23;1.67;;;1.00;;
50517;SDS011;37075;44.084;2.962;2024-02-16T04:51:10;1.17;;;0.35;;
50517;SDS011;37075;44.084;2.962;2024-02-16T04:53:57;2.05;;;1.45;;
50517;SDS011;37075;44.084;2.962;2024-02-16T04:56:43;7.95;;;2.10;;
50517;SDS011;37075;44.084;2.962;2024-02-16T04:59:29;0.68;;;0.68;;
50517;SDS011;37075;44.084;2.962;2024-02-16T05:02:15;3.95;;;0.70;;
50517;SDS011;37075;44.084;2.962;2024-02-16T05:05:01;2.17;;;0.93;;
50517;SDS011;37075;44.084;2.962;2024-02-16T05:07:48;1.27;;;0.93;;
50517;SDS011;37075;44.084;2.962;2024-02-16T05:10:36;2.45;;;0.80;;
50517;SDS011;37075;44.084;2.962;2024-02-16T05:13:22;4.93;;;2.97;;
50517;SDS011;37075;44.084;2.962;2024-02-16T05:16:10;5.55;;;2.92;;
50517;SDS011;37075;44.084;2.962;2024-02-16T05:18:57;2.25;;;1.27;;
50517;SDS011;37075;44.084;2.962;2024-02-16T05:21:43;2.40;;;0.95;;
50517;SDS011;37075;44.084;2.962;2024-02-16T05:24:29;8.38;;;2.15;;
50517;SDS011;37075;44.084;2.962;2024-02-16T05:27:16;0.95;;;0.63;;
50517;SDS011;37075;44.084;2.962;2024-02-16T05:30:02;2.80;;;1.40;;
50517;SDS011;37075;44.084;2.962;2024-02-16T05:32:52;2.58;;;1.00;;
50517;SDS011;37075;44.084;2.962;2024-02-16T05:35:42;2.20;;;0.90;;
50517;SDS011;37075;44.084;2.962;2024-02-16T05:38:34;3.83;;;2.00;;
50517;SDS011;37075;44.084;2.962;2024-02-16T05:41:25;1.85;;;1.05;;
50517;SDS011;37075;44.084;2.962;2024-02-16T05:44:12;3.95;;;1.30;;
50517;SDS011;37075;44.084;2.962;2024-02-16T05:46:59;7.85;;;2.35;;
50517;SDS011;37075;44.084;2.962;2024-02-16T05:49:45;3.92;;;0.95;;
50517;SDS011;37075;44.084;2.962;2024-02-16T05:52:31;0.60;;;0.60;;
50517;SDS011;37075;44.084;2.962;2024-02-16T05:55:17;0.80;;;0.68;;
50517;SDS011;37075;44.084;2.962;2024-02-16T05:58:04;2.38;;;0.98;;
50517;SDS011;37075;44.084;2.962;2024-02-16T06:00:51;4.88;;;0.73;;
50517;SDS011;37075;44.084;2.962;2024-02-16T06:03:40;1.83;;;1.45;;
50517;SDS011;37075;44.084;2.962;2024-02-16T06:06:26;4.05;;;1.73;;
50517;SDS011;37075;44.084;2.962;2024-02-16T06:09:12;4.03;;;0.68;;
50517;SDS011;37075;44.084;2.962;2024-02-16T06:11:59;16.27;;;1.45;;
50517;SDS011;37075;44.084;2.962;2024-02-16T06:14:47;6.20;;;1.38;;
50517;SDS011;37075;44.084;2.962;2024-02-16T06:17:35;6.22;;;2.85;;
50517;SDS011;37075;44.084;2.962;2024-02-16T06:23:07;4.78;;;1.98;;
50517;SDS011;37075;44.084;2.962;2024-02-16T06:25:54;2.15;;;0.75;;
50517;SDS011;37075;44.084;2.962;2024-02-16T06:28:39;5.75;;;0.98;;
50517;SDS011;37075;44.084;2.962;2024-02-16T06:31:25;0.98;;;0.82;;
50517;SDS011;37075;44.084;2.962;2024-02-16T06:34:12;6.32;;;0.77;;
50517;SDS011;37075;44.084;2.962;2024-02-16T06:36:59;0.80;;;0.70;;
50517;SDS011;37075;44.084;2.962;2024-02-16T06:39:44;3.22;;;0.75;;
50517;SDS011;37075;44.084;2.962;2024-02-16T06:42:31;1.63;;;0.80;;
50517;SDS011;37075;44.084;2.962;2024-02-16T06:45:18;1.43;;;0.70;;
50517;SDS011;37075;44.084;2.962;2024-02-16T06:48:05;1.88;;;1.13;;
50517;SDS011;37075;44.084;2.962;2024-02-16T06:50:53;5.80;;;1.73;;
50517;SDS011;37075;44.084;2.962;2024-02-16T06:53:39;10.90;;;1.13;;
50517;SDS011;37075;44.084;2.962;2024-02-16T06:56:26;3.03;;;1.55;;
50517;SDS011;37075;44.084;2.962;2024-02-16T06:59:12;3.30;;;1.50;;
50517;SDS011;37075;44.084;2.962;2024-02-16T07:01:58;4.10;;;2.83;;
50517;SDS011;37075;44.084;2.962;2024-02-16T07:04:44;3.85;;;1.70;;
50517;SDS011;37075;44.084;2.962;2024-02-16T07:07:31;2.90;;;1.63;;
50517;SDS011;37075;44.084;2.962;2024-02-16T07:10:20;1.17;;;0.90;;
50517;SDS011;37075;44.084;2.962;2024-02-16T07:13:06;3.35;;;1.38;;
50517;SDS011;37075;44.084;2.962;2024-02-16T07:15:52;6.22;;;2.65;;
50517;SDS011;37075;44.084;2.962;2024-02-16T07:18:37;1.25;;;0.68;;
50517;SDS011;37075;44.084;2.962;2024-02-16T07:21:24;1.58;;;1.00;;
50517;SDS011;37075;44.084;2.962;2024-02-16T07:24:12;1.42;;;0.88;;
50517;SDS011;37075;44.084;2.962;2024-02-16T07:26:59;0.93;;;0.60;;
50517;SDS011;37075;44.084;2.962;2024-02-16T07:29:46;0.98;;;0.60;;
50517;SDS011;37075;44.084;2.962;2024-02-16T07:32:39;2.08;;;1.23;;
50517;SDS011;37075;44.084;2.962;2024-02-16T07:35:25;2.03;;;1.23;;
50517;SDS011;37075;44.084;2.962;2024-02-16T07:38:11;9.10;;;1.27;;
50517;SDS011;37075;44.084;2.962;2024-02-16T07:40:57;0.82;;;0.75;;
50517;SDS011;37075;44.084;2.962;2024-02-16T07:43:43;0.60;;;0.43;;
50517;SDS011;37075;44.084;2.962;2024-02-16T07:46:29;0.80;;;0.60;;
50517;SDS011;37075;44.084;2.962;2024-02-16T07:49:17;6.30;;;1.10;;
50517;SDS011;37075;44.084;2.962;2024-02-16T07:52:03;4.93;;;3.17;;
50517;SDS011;37075;44.084;2.962;2024-02-16T07:54:49;5.95;;;3.75;;
50517;SDS011;37075;44.084;2.962;2024-02-16T07:57:35;7.75;;;4.20;;
50517;SDS011;37075;44.084;2.962;2024-02-16T08:00:22;5.43;;;2.55;;
50517;SDS011;37075;44.084;2.962;2024-02-16T08:03:08;2.63;;;1.40;;
50517;SDS011;37075;44.084;2.962;2024-02-16T08:05:55;5.50;;;2.13;;
50517;SDS011;37075;44.084;2.962;2024-02-16T08:08:41;3.65;;;1.30;;
50517;SDS011;37075;44.084;2.962;2024-02-16T08:11:27;2.92;;;1.38;;
50517;SDS011;37075;44.084;2.962;2024-02-16T08:14:13;4.47;;;1.80;;
50517;SDS011;37075;44.084;2.962;2024-02-16T08:16:59;2.78;;;1.73;;
50517;SDS011;37075;44.084;2.962;2024-02-16T08:19:50;6.50;;;1.30;;
50517;SDS011;37075;44.084;2.962;2024-02-16T08:22:39;4.93;;;2.00;;
50517;SDS011;37075;44.084;2.962;2024-02-16T08:25:25;4.32;;;1.80;;
50517;SDS011;37075;44.084;2.962;2024-02-16T08:28:12;2.47;;;0.95;;
50517;SDS011;37075;44.084;2.962;2024-02-16T08:30:58;1.83;;;0.80;;
50517;SDS011;37075;44.084;2.962;2024-02-16T08:33:44;2.13;;;1.23;;
50517;SDS011;37075;44.084;2.962;2024-02-16T08:36:31;4.90;;;0.50;;
50517;SDS011;37075;44.084;2.962;2024-02-16T08:39:20;1.85;;;1.13;;
50517;SDS011;37075;44.084;2.962;2024-02-16T08:42:09;2.38;;;1.17;;
50517;SDS011;37075;44.084;2.962;2024-02-16T08:44:55;2.50;;;1.20;;
50517;SDS011;37075;44.084;2.962;2024-02-16T08:47:44;4.35;;;1.50;;
50517;SDS011;37075;44.084;2.962;2024-02-16T08:50:30;2.65;;;1.45;;
50517;SDS011;37075;44.084;2.962;2024-02-16T08:53:16;0.98;;;0.68;;
50517;SDS011;37075;44.084;2.962;2024-02-16T08:56:08;3.40;;;1.65;;
50517;SDS011;37075;44.084;2.962;2024-02-16T08:58:55;1.58;;;1.25;;
50517;SDS011;37075;44.084;2.962;2024-02-16T09:01:42;3.75;;;1.20;;
50517;SDS011;37075;44.084;2.962;2024-02-16T09:04:28;3.92;;;0.90;;
50517;SDS011;37075;44.084;2.962;2024-02-16T09:07:15;2.22;;;0.93;;
50517;SDS011;37075;44.084;2.962;2024-02-16T09:10:01;1.30;;;0.65;;
50517;SDS011;37075;44.084;2.962;2024-02-16T09:12:50;2.70;;;1.17;;
50517;SDS011;37075;44.084;2.962;2024-02-16T09:18:22;6.65;;;2.00;;
50517;SDS011;37075;44.084;2.962;2024-02-16T09:21:08;2.90;;;2.30;;
50517;SDS011;37075;44.084;2.962;2024-02-16T09:23:55;12.43;;;5.38;;
50517;SDS011;37075;44.084;2.962;2024-02-16T09:29:31;7.78;;;5.45;;
50517;SDS011;37075;44.084;2.962;2024-02-16T09:35:04;8.63;;;3.90;;
50517;SDS011;37075;44.084;2.962;2024-02-16T09:37:50;6.10;;;1.92;;
50517;SDS011;37075;44.084;2.962;2024-02-16T09:40:36;4.43;;;2.20;;
50517;SDS011;37075;44.084;2.962;2024-02-16T09:43:26;7.72;;;1.35;;
50517;SDS011;37075;44.084;2.962;2024-02-16T09:46:15;3.65;;;1.80;;
50517;SDS011;37075;44.084;2.962;2024-02-16T09:49:03;3.47;;;1.30;;
50517;SDS011;37075;44.084;2.962;2024-02-16T09:51:49;1.23;;;1.05;;
50517;SDS011;37075;44.084;2.962;2024-02-16T09:54:36;2.40;;;1.30;;
50517;SDS011;37075;44.084;2.962;2024-02-16T09:57:22;3.00;;;1.55;;
50517;SDS011;37075;44.084;2.962;2024-02-16T10:00:09;3.33;;;1.60;;
50517;SDS011;37075;44.084;2.962;2024-02-16T10:03:00;2.38;;;1.85;;
50517;SDS011;37075;44.084;2.962;2024-02-16T10:05:46;1.90;;;1.15;;
50517;SDS011;37075;44.084;2.962;2024-02-16T10:08:32;3.45;;;1.90;;
50517;SDS011;37075;44.084;2.962;2024-02-16T10:11:19;3.90;;;2.20;;
50517;SDS011;37075;44.084;2.962;2024-02-16T10:14:06;2.25;;;1.38;;
50517;SDS011;37075;44.084;2.962;2024-02-16T10:16:59;7.93;;;2.10;;
50517;SDS011;37075;44.084;2.962;2024-02-16T10:19:56;4.97;;;1.40;;
50517;SDS011;37075;44.084;2.962;2024-02-16T10:22:42;3.00;;;1.50;;
50517;SDS011;37075;44.084;2.962;2024-02-16T10:25:28;10.00;;;2.13;;
50517;SDS011;37075;44.084;2.962;2024-02-16T10:28:14;2.78;;;1.45;;
50517;SDS011;37075;44.084;2.962;2024-02-16T10:31:01;4.03;;;0.93;;
50517;SDS011;37075;44.084;2.962;2024-02-16T10:36:37;2.80;;;1.60;;
50517;SDS011;37075;44.084;2.962;2024-02-16T10:39:25;3.20;;;1.05;;
50517;SDS011;37075;44.084;2.962;2024-02-16T10:42:12;2.70;;;1.03;;
50517;SDS011;37075;44.084;2.962;2024-02-16T10:45:00;3.40;;;1.15;;
50517;SDS011;37075;44.084;2.962;2024-02-16T10:47:47;2.08;;;1.20;;
50517;SDS011;37075;44.084;2.962;2024-02-16T10:50:33;1.67;;;1.20;;
50517;SDS011;37075;44.084;2.962;2024-02-16T10:53:23;2.97;;;1.48;;
50517;SDS011;37075;44.084;2.962;2024-02-16T10:56:13;5.13;;;1.90;;
50517;SDS011;37075;44.084;2.962;2024-02-16T10:59:00;4.82;;;2.38;;
50517;SDS011;37075;44.084;2.962;2024-02-16T11:01:48;5.00;;;2.58;;
50517;SDS011;37075;44.084;2.962;2024-02-16T11:04:46;2.08;;;1.63;;
50517;SDS011;37075;44.084;2.962;2024-02-16T11:07:33;6.32;;;3.35;;
50517;SDS011;37075;44.084;2.962;2024-02-16T11:10:21;3.20;;;1.63;;
50517;SDS011;37075;44.084;2.962;2024-02-16T11:13:07;4.85;;;2.30;;
50517;SDS011;37075;44.084;2.962;2024-02-16T11:15:56;6.32;;;2.08;;
50517;SDS011;37075;44.084;2.962;2024-02-16T11:18:45;6.32;;;2.30;;
50517;SDS011;37075;44.084;2.962;2024-02-16T11:21:33;3.78;;;1.10;;
50517;SDS011;37075;44.084;2.962;2024-02-16T11:24:19;4.65;;;2.08;;
50517;SDS011;37075;44.084;2.962;2024-02-16T11:27:09;7.28;;;3.03;;
50517;SDS011;37075;44.084;2.962;2024-02-16T11:29:57;6.72;;;2.70;;
50517;SDS011;37075;44.084;2.962;2024-02-16T11:32:45;5.95;;;3.13;;
50517;SDS011;37075;44.084;2.962;2024-02-16T11:35:31;5.97;;;2.45;;
50517;SDS011;37075;44.084;2.962;2024-02-16T11:38:17;6.93;;;2.65;;
50517;SDS011;37075;44.084;2.962;2024-02-16T11:41:04;4.32;;;2.25;;
50517;SDS011;37075;44.084;2.962;2024-02-16T11:43:59;2.95;;;1.17;;
50517;SDS011;37075;44.084;2.962;2024-02-16T11:46:46;3.38;;;0.90;;
50517;SDS011;37075;44.084;2.962;2024-02-16T11:49:32;6.15;;;1.02;;
50517;SDS011;37075;44.084;2.962;2024-02-16T11:52:19;7.47;;;1.40;;
50517;SDS011;37075;44.084;2.962;2024-02-16T11:55:07;4.20;;;0.93;;
50517;SDS011;37075;44.084;2.962;2024-02-16T11:57:54;1.90;;;1.13;;
50517;SDS011;37075;44.084;2.962;2024-02-16T12:00:42;2.00;;;0.73;;
50517;SDS011;37075;44.084;2.962;2024-02-16T12:03:29;1.80;;;0.75;;
50517;SDS011;37075;44.084;2.962;2024-02-16T12:06:19;2.50;;;0.68;;
50517;SDS011;37075;44.084;2.962;2024-02-16T12:09:06;10.20;;;0.93;;
50517;SDS011;37075;44.084;2.962;2024-02-16T12:11:53;1.20;;;0.40;;
50517;SDS011;37075;44.084;2.962;2024-02-16T12:14:40;2.53;;;1.00;;
50517;SDS011;37075;44.084;2.962;2024-02-16T12:17:27;8.63;;;0.50;;
50517;SDS011;37075;44.084;2.962;2024-02-16T12:20:13;1.58;;;0.65;;
50517;SDS011;37075;44.084;2.962;2024-02-16T12:23:00;2.83;;;0.85;;
50517;SDS011;37075;44.084;2.962;2024-02-16T12:25:56;6.93;;;0.50;;
50517;SDS011;37075;44.084;2.962;2024-02-16T12:28:42;2.35;;;1.13;;
50517;SDS011;37075;44.084;2.962;2024-02-16T12:31:29;2.45;;;0.43;;
50517;SDS011;37075;44.084;2.962;2024-02-16T12:34:17;4.43;;;0.70;;
50517;SDS011;37075;44.084;2.962;2024-02-16T12:37:04;2.58;;;0.82;;
50517;SDS011;37075;44.084;2.962;2024-02-16T12:39:51;3.90;;;1.05;;
50517;SDS011;37075;44.084;2.962;2024-02-16T12:42:37;8.07;;;0.93;;
50517;SDS011;37075;44.084;2.962;2024-02-16T12:45:23;1.80;;;0.88;;
50517;SDS011;37075;44.084;2.962;2024-02-16T12:48:09;1.90;;;0.70;;
50517;SDS011;37075;44.084;2.962;2024-02-16T12:50:59;1.30;;;0.82;;
50517;SDS011;37075;44.084;2.962;2024-02-16T12:53:45;6.70;;;0.63;;
50517;SDS011;37075;44.084;2.962;2024-02-16T12:56:31;6.65;;;1.10;;
50517;SDS011;37075;44.084;2.962;2024-02-16T12:59:17;9.80;;;1.10;;
50517;SDS011;37075;44.084;2.962;2024-02-16T13:02:03;1.00;;;0.75;;
50517;SDS011;37075;44.084;2.962;2024-02-16T13:04:49;2.05;;;0.80;;
50517;SDS011;37075;44.084;2.962;2024-02-16T13:07:39;4.20;;;1.02;;
50517;SDS011;37075;44.084;2.962;2024-02-16T13:10:26;1.05;;;0.40;;
50517;SDS011;37075;44.084;2.962;2024-02-16T13:13:12;0.73;;;0.40;;
50517;SDS011;37075;44.084;2.962;2024-02-16T13:15:58;1.90;;;0.63;;
50517;SDS011;37075;44.084;2.962;2024-02-16T13:18:44;7.60;;;0.40;;
50517;SDS011;37075;44.084;2.962;2024-02-16T13:21:30;4.35;;;1.42;;
50517;SDS011;37075;44.084;2.962;2024-02-16T13:24:18;1.17;;;0.75;;
50517;SDS011;37075;44.084;2.962;2024-02-16T13:27:04;0.57;;;0.57;;
50517;SDS011;37075;44.084;2.962;2024-02-16T13:29:51;1.60;;;0.43;;
50517;SDS011;37075;44.084;2.962;2024-02-16T13:32:38;2.40;;;0.90;;
50517;SDS011;37075;44.084;2.962;2024-02-16T13:35:24;4.95;;;0.52;;
50517;SDS011;37075;44.084;2.962;2024-02-16T13:38:13;3.72;;;0.57;;
50517;SDS011;37075;44.084;2.962;2024-02-16T13:41:01;1.40;;;0.90;;
50517;SDS011;37075;44.084;2.962;2024-02-16T13:43:49;0.25;;;0.25;;
50517;SDS011;37075;44.084;2.962;2024-02-16T13:46:36;0.20;;;0.20;;
50517;SDS011;37075;44.084;2.962;2024-02-16T13:49:22;1.00;;;0.22;;
50517;SDS011;37075;44.084;2.962;2024-02-16T13:52:08;1.20;;;0.75;;
50517;SDS011;37075;44.084;2.962;2024-02-16T13:54:55;3.25;;;0.63;;
50517;SDS011;37075;44.084;2.962;2024-02-16T13:57:42;1.50;;;0.70;;
50517;SDS011;37075;44.084;2.962;2024-02-16T14:00:29;2.55;;;0.30;;
50517;SDS011;37075;44.084;2.962;2024-02-16T14:03:16;0.60;;;0.30;;
50517;SDS011;37075;44.084;2.962;2024-02-16T14:06:03;0.65;;;0.25;;
50517;SDS011;37075;44.084;2.962;2024-02-16T14:08:51;0.35;;;0.10;;
50517;SDS011;37075;44.084;2.962;2024-02-16T14:11:37;0.32;;;0.25;;
50517;SDS011;37075;44.084;2.962;2024-02-16T14:14:25;0.00;;;0.00;;
50517;SDS011;37075;44.084;2.962;2024-02-16T14:17:14;0.17;;;0.10;;
50517;SDS011;37075;44.084;2.962;2024-02-16T14:19:59;0.45;;;0.20;;
50517;SDS011;37075;44.084;2.962;2024-02-16T14:22:46;0.00;;;0.00;;
50517;SDS011;37075;44.084;2.962;2024-02-16T14:25:32;0.10;;;0.10;;
50517;SDS011;37075;44.084;2.962;2024-02-16T14:28:19;0.20;;;0.20;;
50517;SDS011;37075;44.084;2.962;2024-02-16T14:31:06;0.00;;;0.00;;
50517;SDS011;37075;44.084;2.962;2024-02-16T14:33:53;0.20;;;0.20;;
50517;SDS011;37075;44.084;2.962;2024-02-16T14:36:39;0.00;;;0.00;;
50517;SDS011;37075;44.084;2.962;2024-02-16T14:39:25;2.28;;;0.10;;
50517;SDS011;37075;44.084;2.962;2024-02-16T14:42:11;0.00;;;0.00;;
50517;SDS011;37075;44.084;2.962;2024-02-16T14:44:57;0.35;;;0.20;;
50517;SDS011;37075;44.084;2.962;2024-02-16T14:47:45;0.10;;;0.00;;
50517;SDS011;37075;44.084;2.962;2024-02-16T14:50:31;0.00;;;0.00;;
50517;SDS011;37075;44.084;2.962;2024-02-16T14:53:17;0.40;;;0.08;;
50517;SDS011;37075;44.084;2.962;2024-02-16T14:56:03;0.00;;;0.00;;
50517;SDS011;37075;44.084;2.962;2024-02-16T14:58:50;0.45;;;0.08;;
50517;SDS011;37075;44.084;2.962;2024-02-16T15:01:36;0.08;;;0.00;;
50517;SDS011;37075;44.084;2.962;2024-02-16T15:04:23;0.00;;;0.00;;
50517;SDS011;37075;44.084;2.962;2024-02-16T15:09:56;1.85;;;0.20;;
50517;SDS011;37075;44.084;2.962;2024-02-16T15:12:42;0.08;;;0.00;;
50517;SDS011;37075;44.084;2.962;2024-02-16T15:15:28;0.00;;;0.00;;
50517;SDS011;37075;44.084;2.962;2024-02-16T15:18:14;0.00;;;0.00;;
50517;SDS011;37075;44.084;2.962;2024-02-16T15:21:02;0.60;;;0.10;;
50517;SDS011;37075;44.084;2.962;2024-02-16T15:23:48;0.13;;;0.00;;
50517;SDS011;37075;44.084;2.962;2024-02-16T15:26:34;0.10;;;0.10;;
50517;SDS011;37075;44.084;2.962;2024-02-16T15:29:20;0.55;;;0.10;;
50517;SDS011;37075;44.084;2.962;2024-02-16T15:32:06;0.00;;;0.00;;
50517;SDS011;37075;44.084;2.962;2024-02-16T15:37:41;0.20;;;0.00;;
50517;SDS011;37075;44.084;2.962;2024-02-16T15:40:27;0.35;;;0.15;;
50517;SDS011;37075;44.084;2.962;2024-02-16T15:43:13;0.20;;;0.00;;
50517;SDS011;37075;44.084;2.962;2024-02-16T15:46:00;0.20;;;0.08;;
50517;SDS011;37075;44.084;2.962;2024-02-16T15:48:46;0.00;;;0.00;;
50517;SDS011;37075;44.084;2.962;2024-02-16T15:51:33;0.20;;;0.10;;
50517;SDS011;37075;44.084;2.962;2024-02-16T15:54:20;0.10;;;0.00;;
50517;SDS011;37075;44.084;2.962;2024-02-16T15:57:10;0.00;;;0.00;;
50517;SDS011;37075;44.084;2.962;2024-02-16T15:59:56;0.38;;;0.00;;
50517;SDS011;37075;44.084;2.962;2024-02-16T16:02:42;0.22;;;0.10;;
50517;SDS011;37075;44.084;2.962;2024-02-16T16:05:28;0.20;;;0.00;;
50517;SDS011;37075;44.084;2.962;2024-02-16T16:08:17;0.00;;;0.00;;
50517;SDS011;37075;44.084;2.962;2024-02-16T16:11:06;0.00;;;0.00;;
50517;SDS011;37075;44.084;2.962;2024-02-16T16:13:52;0.00;;;0.00;;
50517;SDS011;37075;44.084;2.962;2024-02-16T16:16:38;1.85;;;0.38;;
50517;SDS011;37075;44.084;2.962;2024-02-16T16:19:24;0.10;;;0.00;;
50517;SDS011;37075;44.084;2.962;2024-02-16T16:22:11;0.63;;;0.25;;
50517;SDS011;37075;44.084;2.962;2024-02-16T16:24:57;0.57;;;0.10;;
50517;SDS011;37075;44.084;2.962;2024-02-16T16:27:46;1.00;;;0.10;;
50517;SDS011;37075;44.084;2.962;2024-02-16T16:30:32;0.22;;;0.10;;
50517;SDS011;37075;44.084;2.962;2024-02-16T16:33:19;0.13;;;0.13;;
50517;SDS011;37075;44.084;2.962;2024-02-16T16:36:05;0.95;;;0.10;;
50517;SDS011;37075;44.084;2.962;2024-02-16T16:38:57;0.30;;;0.10;;
50517;SDS011;37075;44.084;2.962;2024-02-16T16:41:43;0.52;;;0.28;;
50517;SDS011;37075;44.084;2.962;2024-02-16T16:44:31;0.00;;;0.00;;
50517;SDS011;37075;44.084;2.962;2024-02-16T16:47:17;0.93;;;0.10;;
50517;SDS011;37075;44.084;2.962;2024-02-16T16:50:03;0.20;;;0.10;;
50517;SDS011;37075;44.084;2.962;2024-02-16T16:52:52;0.28;;;0.10;;
50517;SDS011;37075;44.084;2.962;2024-02-16T16:55:39;0.45;;;0.28;;
50517;SDS011;37075;44.084;2.962;2024-02-16T16:58:25;0.10;;;0.00;;
50517;SDS011;37075;44.084;2.962;2024-02-16T17:01:13;0.10;;;0.03;;
50517;SDS011;37075;44.084;2.962;2024-02-16T17:04:00;0.03;;;0.00;;
50517;SDS011;37075;44.084;2.962;2024-02-16T17:06:46;0.35;;;0.30;;
50517;SDS011;37075;44.084;2.962;2024-02-16T17:09:34;0.00;;;0.00;;